Time;durP1;ratioP1;P1;durP2;ratioP2;P2;SDS_P1;SDS_P2;PMS_P1;PMS_P2;Temp;Humidity;BMP_temperature;BMP_pressure;BME280_temperature;BME280_humidity;BME280_pressure;Samples;Min_cycle;Max_cycle;Signal;HPM_P1;HPM_P2
2023/08/18 00:02:20;;;;;;;1999.90;999.90;;;19.60;99.90;;;;;;5096277;28;20032;-78
2023/08/18 00:04:46;;;;;;;1999.90;999.90;;;19.70;99.90;;;;;;5095885;28;20032;-76
2023/08/18 00:07:11;;;;;;;1999.90;999.90;;;19.50;99.90;;;;;;5096156;28;20397;-76
2023/08/18 00:09:37;;;;;;;1999.90;999.90;;;19.40;99.90;;;;;;5094506;28;20505;-76
2023/08/18 00:12:05;;;;;;;1999.90;999.90;;;19.50;99.90;;;;;;5094576;28;20168;-77
2023/08/18 00:14:31;;;;;;;1999.90;999.90;;;19.50;99.90;;;;;;5095799;28;20029;-76
2023/08/18 00:16:56;;;;;;;1999.90;999.90;;;19.40;99.90;;;;;;5095999;28;20040;-76
2023/08/18 00:19:22;;;;;;;1999.90;999.90;;;19.30;99.90;;;;;;5093872;28;20478;-76
2023/08/18 00:21:47;;;;;;;1999.90;999.90;;;19.30;99.90;;;;;;5095980;28;20036;-78
2023/08/18 00:24:13;;;;;;;1999.90;999.90;;;19.20;99.90;;;;;;5094147;28;20029;-76
2023/08/18 00:26:39;;;;;;;1999.90;999.90;;;19.20;99.90;;;;;;5095982;28;20055;-76
2023/08/18 00:29:04;;;;;;;1999.90;999.90;;;19.10;99.90;;;;;;5095412;28;20026;-77
2023/08/18 00:31:30;;;;;;;1999.90;999.90;;;19.20;99.90;;;;;;5094220;28;20032;-76
2023/08/18 00:33:55;;;;;;;1999.90;999.90;;;19.10;99.90;;;;;;5095702;28;20115;-76
2023/08/18 00:36:21;;;;;;;1999.90;999.90;;;19.10;99.90;;;;;;5095701;28;20036;-76
2023/08/18 00:38:47;;;;;;;1999.90;999.90;;;19.10;99.90;;;;;;5095711;28;20032;-77
2023/08/18 00:41:13;;;;;;;1999.90;999.90;;;19.10;99.90;;;;;;5095819;28;20470;-76
2023/08/18 00:43:38;;;;;;;1999.90;999.90;;;18.80;99.90;;;;;;5094108;28;20037;-76
2023/08/18 00:46:05;;;;;;;1999.90;999.90;;;18.90;99.90;;;;;;5094989;28;20036;-76
2023/08/18 00:48:31;;;;;;;1999.90;999.90;;;18.90;99.90;;;;;;5093973;28;20024;-76
2023/08/18 00:50:58;;;;;;;1999.90;999.90;;;18.80;99.90;;;;;;5095370;28;20037;-77
2023/08/18 00:53:23;;;;;;;1999.90;999.90;;;18.70;99.90;;;;;;5095521;28;20028;-76
2023/08/18 00:55:49;;;;;;;1999.90;999.90;;;18.70;99.90;;;;;;5095380;28;20033;-76
2023/08/18 00:58:15;;;;;;;1999.90;999.90;;;18.70;99.90;;;;;;5095096;28;20032;-76
2023/08/18 01:00:41;;;;;;;1999.90;999.90;;;18.70;99.90;;;;;;5095322;28;20032;-76
2023/08/18 01:03:07;;;;;;;1999.90;999.90;;;18.60;99.90;;;;;;5095375;28;20036;-76
2023/08/18 01:05:32;;;;;;;1999.90;999.90;;;18.60;99.90;;;;;;5095003;28;20029;-76
2023/08/18 01:08:00;;;;;;;1999.90;999.90;;;18.50;99.90;;;;;;5095476;28;20071;-76
2023/08/18 01:10:30;;;;;;;1999.90;999.90;;;18.60;99.90;;;;;;5095309;28;20033;-76
2023/08/18 01:13:09;;;;;;;1999.90;999.90;;;18.50;99.90;;;;;;5101840;28;20040;-76
2023/08/18 01:15:41;;;;;;;1999.90;999.90;;;18.40;99.90;;;;;;5101659;28;20486;-76
2023/08/18 01:18:09;;;;;;;1999.90;999.90;;;18.40;99.90;;;;;;5101771;28;20512;-76
2023/08/18 01:20:34;;;;;;;1999.90;999.90;;;18.40;99.90;;;;;;5101572;28;20036;-76
2023/08/18 01:23:04;;;;;;;1999.90;999.90;;;18.40;99.90;;;;;;5101741;28;20493;-76
2023/08/18 01:25:30;;;;;;;1999.90;999.90;;;18.20;99.90;;;;;;5101482;28;20070;-76
2023/08/18 01:27:58;;;;;;;1999.90;999.90;;;18.30;99.90;;;;;;5100224;28;20033;-76
2023/08/18 01:30:32;;;;;;;1999.90;999.90;;;18.30;99.90;;;;;;5100142;28;20114;-76
2023/08/18 01:33:12;;;;;;;1999.90;999.90;;;18.30;99.90;;;;;;5101971;28;20580;-76
2023/08/18 01:35:41;;;;;;;1999.90;999.90;;;18.30;99.90;;;;;;5100220;28;20041;-76
2023/08/18 01:38:09;;;;;;;1999.90;999.90;;;18.40;99.90;;;;;;5100262;28;20098;-77
2023/08/18 01:40:37;;;;;;;1999.90;999.90;;;18.20;99.90;;;;;;5100068;28;20028;-76
2023/08/18 01:43:10;;;;;;;1999.90;999.90;;;18.30;99.90;;;;;;5101440;28;20057;-76
2023/08/18 01:45:36;;;;;;;1999.90;999.90;;;18.20;99.90;;;;;;5101147;28;20039;-76
2023/08/18 01:48:02;;;;;;;1999.90;999.90;;;18.30;99.90;;;;;;5100140;28;20473;-76
2023/08/18 01:50:28;;;;;;;1999.90;999.90;;;18.30;99.90;;;;;;5101513;28;20025;-76
2023/08/18 01:52:53;;;;;;;1999.90;999.90;;;18.30;99.90;;;;;;5100033;28;20040;-76
2023/08/18 01:55:19;;;;;;;1999.90;999.90;;;18.20;99.90;;;;;;5101916;28;20063;-76
2023/08/18 01:57:44;;;;;;;1999.90;999.90;;;18.10;99.90;;;;;;5100132;28;20072;-75
2023/08/18 02:00:10;;;;;;;1999.90;999.90;;;18.10;99.90;;;;;;5101628;28;20039;-76
2023/08/18 02:02:36;;;;;;;1999.90;999.90;;;18.10;99.90;;;;;;5101392;28;20040;-75
2023/08/18 02:05:02;;;;;;;1999.90;999.90;;;18.10;99.90;;;;;;5101277;28;20032;-76
2023/08/18 02:07:27;;;;;;;1999.90;999.90;;;18.10;99.90;;;;;;5101448;28;20044;-76
2023/08/18 02:09:53;;;;;;;1999.90;999.90;;;18.00;99.90;;;;;;5099667;28;20401;-76
2023/08/18 02:12:18;;;;;;;1999.90;999.90;;;18.00;99.90;;;;;;5099837;28;20040;-75
2023/08/18 02:14:44;;;;;;;1999.90;999.90;;;17.90;99.90;;;;;;5099605;28;20077;-76
2023/08/18 02:17:09;;;;;;;1999.90;999.90;;;17.90;99.90;;;;;;5101082;28;20119;-75
2023/08/18 02:19:35;;;;;;;1999.90;999.90;;;17.80;99.90;;;;;;5100683;28;20130;-76
2023/08/18 02:22:00;;;;;;;1999.90;999.90;;;17.70;99.90;;;;;;5098919;28;20140;-76
2023/08/18 02:24:26;;;;;;;1999.90;999.90;;;17.80;99.90;;;;;;5097691;28;20029;-76
2023/08/18 02:26:52;;;;;;;1999.90;999.90;;;17.80;99.90;;;;;;5097872;28;20036;-75
2023/08/18 02:29:17;;;;;;;1999.90;999.90;;;17.80;99.90;;;;;;5096021;28;20068;-76
2023/08/18 02:31:43;;;;;;;1999.90;999.90;;;17.70;99.90;;;;;;5096165;28;20482;-76
2023/08/18 02:34:08;;;;;;;1999.90;999.90;;;17.70;99.90;;;;;;5097541;28;20524;-75
2023/08/18 02:36:34;;;;;;;1999.90;999.90;;;17.90;99.90;;;;;;5096129;28;20032;-76
2023/08/18 02:38:59;;;;;;;1999.90;999.90;;;17.80;99.90;;;;;;5095751;28;20037;-76
2023/08/18 02:41:25;;;;;;;1999.90;999.90;;;17.80;99.90;;;;;;5095970;28;20036;-76
2023/08/18 02:43:50;;;;;;;1999.90;999.90;;;17.80;99.90;;;;;;5096037;28;20489;-76
2023/08/18 02:46:16;;;;;;;1999.90;999.90;;;17.70;99.90;;;;;;5097372;28;20535;-76
2023/08/18 02:48:42;;;;;;;1999.90;999.90;;;17.60;99.90;;;;;;5097375;28;20111;-76
2023/08/18 02:51:08;;;;;;;1999.90;999.90;;;17.60;99.90;;;;;;5097216;28;20043;-76
2023/08/18 02:53:34;;;;;;;1999.90;999.90;;;17.50;99.90;;;;;;5097257;28;20033;-75
2023/08/18 02:56:01;;;;;;;1999.90;999.90;;;17.50;99.90;;;;;;5097112;28;20043;-76
2023/08/18 02:58:28;;;;;;;1999.90;999.90;;;17.30;99.90;;;;;;5097056;28;20049;-77
2023/08/18 03:01:02;;;;;;;1999.90;999.90;;;17.40;99.90;;;;;;5097042;28;20454;-75
2023/08/18 03:03:27;;;;;;;1999.90;999.90;;;17.40;99.90;;;;;;5097353;28;20040;-76
2023/08/18 03:05:53;;;;;;;1999.90;999.90;;;17.30;99.90;;;;;;5095360;28;20025;-77
2023/08/18 03:08:18;;;;;;;1999.90;999.90;;;17.30;99.90;;;;;;5095437;28;20059;-75
2023/08/18 03:10:53;;;;;;;1999.90;999.90;;;17.30;99.90;;;;;;5095595;28;20124;-76
2023/08/18 03:13:19;;;;;;;1999.90;999.90;;;17.30;99.90;;;;;;5095627;28;20086;-75
2023/08/18 03:15:44;;;;;;;1999.90;999.90;;;17.20;99.90;;;;;;5095309;28;20044;-76
2023/08/18 03:18:10;;;;;;;1999.90;999.90;;;17.10;99.90;;;;;;5096920;28;20041;-77
2023/08/18 03:20:35;;;;;;;1999.90;999.90;;;17.20;99.90;;;;;;5134861;22;20052;-75
2023/08/18 03:23:01;;;;;;;1999.90;999.90;;;17.10;99.90;;;;;;5115557;28;20039;-75
2023/08/18 03:25:26;;;;;;;1999.90;999.90;;;17.00;99.90;;;;;;5116855;28;20059;-76
2023/08/18 03:27:52;;;;;;;1999.90;999.90;;;17.20;99.90;;;;;;5116729;28;20032;-75
2023/08/18 03:30:17;;;;;;;1999.90;999.90;;;17.20;99.90;;;;;;5116687;28;20040;-75
2023/08/18 03:32:43;;;;;;;1999.90;999.90;;;17.10;99.90;;;;;;5115469;28;20032;-76
2023/08/18 03:35:09;;;;;;;1999.90;999.90;;;17.10;99.90;;;;;;5116505;27;20028;-75
2023/08/18 03:37:39;;;;;;;1999.90;999.90;;;17.10;99.90;;;;;;5115211;28;20489;-76
2023/08/18 03:40:07;;;;;;;1999.90;999.90;;;17.00;99.90;;;;;;5116527;28;20547;-77
2023/08/18 03:42:32;;;;;;;1999.90;999.90;;;17.00;99.90;;;;;;5116690;27;20405;-76
2023/08/18 03:44:58;;;;;;;1999.90;999.90;;;16.90;99.90;;;;;;5114175;28;20039;-77
2023/08/18 03:47:24;;;;;;;1999.90;999.90;;;16.80;99.90;;;;;;5116860;27;20036;-77
2023/08/18 03:49:49;;;;;;;1999.90;999.90;;;16.80;99.90;;;;;;5116485;28;20032;-76
2023/08/18 03:52:15;;;;;;;1999.90;999.90;;;16.80;99.90;;;;;;5116272;28;20035;-77
2023/08/18 03:54:41;;;;;;;1999.90;999.90;;;16.90;99.90;;;;;;5116054;28;20107;-77
2023/08/18 03:57:07;;;;;;;1999.90;999.90;;;16.70;99.90;;;;;;5114957;28;20036;-76
2023/08/18 03:59:32;;;;;;;1999.90;999.90;;;16.80;99.90;;;;;;5115893;28;20040;-76
2023/08/18 04:01:58;;;;;;;1999.90;999.90;;;16.80;99.90;;;;;;5116494;28;20036;-76
2023/08/18 04:04:24;;;;;;;1999.90;999.90;;;16.80;99.90;;;;;;5116105;28;20059;-76
2023/08/18 04:06:49;;;;;;;1999.90;999.90;;;16.80;99.90;;;;;;5116337;28;20032;-77
2023/08/18 04:09:15;;;;;;;1999.90;999.90;;;16.80;99.90;;;;;;5116126;28;20385;-76
2023/08/18 04:11:43;;;;;;;1999.90;999.90;;;16.80;99.90;;;;;;5116416;27;20040;-76
2023/08/18 04:14:09;;;;;;;1999.90;999.90;;;16.80;99.90;;;;;;5116031;27;20028;-76
2023/08/18 04:16:34;;;;;;;1999.90;999.90;;;16.70;99.90;;;;;;5116207;27;20481;-77
2023/08/18 04:19:00;;;;;;;1999.90;999.90;;;16.70;99.90;;;;;;5113936;28;20047;-77
2023/08/18 04:21:27;;;;;;;1999.90;999.90;;;16.60;99.90;;;;;;5116187;27;20032;-77
2023/08/18 04:23:52;;;;;;;1999.90;999.90;;;16.70;99.90;;;;;;5114615;28;20024;-77
2023/08/18 04:26:19;;;;;;;1999.90;999.90;;;16.70;99.90;;;;;;5115781;28;20028;-76
2023/08/18 04:28:45;;;;;;;1999.90;999.90;;;16.60;99.90;;;;;;5115999;27;20028;-76
2023/08/18 04:31:11;;;;;;;1999.90;999.90;;;16.60;99.90;;;;;;5115938;27;20489;-76
2023/08/18 04:33:36;;;;;;;1999.90;999.90;;;16.70;99.90;;;;;;5115938;27;20024;-76
2023/08/18 04:36:03;;;;;;;1999.90;999.90;;;16.60;99.90;;;;;;5115688;27;20028;-77
2023/08/18 04:38:29;;;;;;;1999.90;999.90;;;16.60;99.90;;;;;;5114329;28;20040;-76
2023/08/18 04:41:02;;;;;;;1999.90;999.90;;;16.50;99.90;;;;;;5115605;27;20508;-77
2023/08/18 04:43:30;;;;;;;1999.90;999.90;;;16.60;99.90;;;;;;5114335;28;20032;-76
2023/08/18 04:45:57;;;;;;;1999.90;999.90;;;16.70;99.90;;;;;;5114701;27;20028;-76
2023/08/18 04:48:23;;;;;;;1999.90;999.90;;;16.70;99.90;;;;;;5114295;28;20036;-77
2023/08/18 04:50:48;;;;;;;1999.90;999.90;;;16.80;99.90;;;;;;5115541;27;20035;-77
2023/08/18 04:53:15;;;;;;;1999.90;999.90;;;16.80;99.90;;;;;;5115721;28;20447;-77
2023/08/18 04:55:41;;;;;;;1999.90;999.90;;;16.80;99.90;;;;;;5115226;27;20441;-77
2023/08/18 04:58:12;;;;;;;1999.90;999.90;;;16.80;99.90;;;;;;5114043;28;20600;-76
2023/08/18 05:00:44;;;;;;;1999.90;999.90;;;16.90;99.90;;;;;;5115450;27;20756;-76
2023/08/18 05:03:10;;;;;;;1999.90;999.90;;;16.80;99.90;;;;;;5113916;28;20111;-76
2023/08/18 05:05:56;;;;;;;1999.90;999.90;;;16.90;99.90;;;;;;5113720;28;20082;-76
2023/08/18 05:08:21;;;;;;;1999.90;999.90;;;16.80;99.90;;;;;;5115338;28;20509;-76
2023/08/18 05:10:47;;;;;;;1999.90;999.90;;;16.80;99.90;;;;;;5113408;28;20036;-75
2023/08/18 05:13:12;;;;;;;1999.90;999.90;;;16.90;99.90;;;;;;5115225;28;20032;-76
2023/08/18 05:15:38;;;;;;;1999.90;999.90;;;16.80;99.90;;;;;;5113667;28;20120;-76
2023/08/18 05:18:04;;;;;;;1999.90;999.90;;;16.80;99.90;;;;;;5113721;28;20047;-75
2023/08/18 05:20:29;;;;;;;1999.90;999.90;;;16.90;99.90;;;;;;5114801;28;20036;-76
2023/08/18 05:22:55;;;;;;;1999.90;999.90;;;17.00;99.90;;;;;;5113715;28;20384;-76
2023/08/18 05:25:21;;;;;;;1999.90;999.90;;;16.90;99.90;;;;;;5115086;28;20552;-76
2023/08/18 05:27:47;;;;;;;1999.90;999.90;;;17.00;99.90;;;;;;5115276;27;20500;-76
2023/08/18 05:30:13;;;;;;;1999.90;999.90;;;17.00;99.90;;;;;;5114945;28;20103;-76
2023/08/18 05:32:39;;;;;;;1999.90;999.90;;;17.00;99.90;;;;;;5115185;28;20035;-76
2023/08/18 05:35:05;;;;;;;1999.90;999.90;;;17.10;99.90;;;;;;5114811;27;20385;-76
2023/08/18 05:37:31;;;;;;;1999.90;999.90;;;17.10;99.90;;;;;;5114009;27;20048;-76
2023/08/18 05:39:57;;;;;;;1999.90;999.90;;;17.20;99.90;;;;;;5115558;27;20024;-76
2023/08/18 05:42:22;;;;;;;1999.90;999.90;;;17.30;99.90;;;;;;5114018;27;20362;-75
2023/08/18 05:44:48;;;;;;;1999.90;999.90;;;17.30;99.90;;;;;;5113447;28;20355;-76
2023/08/18 05:47:13;;;;;;;1999.90;999.90;;;17.30;99.90;;;;;;5115072;28;20067;-76
2023/08/18 05:49:39;;;;;;;1999.90;999.90;;;17.30;99.90;;;;;;5113196;28;20024;-75
2023/08/18 05:52:04;;;;;;;1999.90;999.90;;;17.40;99.90;;;;;;5096518;28;20072;-76
2023/08/18 05:54:31;;;;;;;1999.90;999.90;;;17.50;99.90;;;;;;5094308;28;20044;-75
2023/08/18 05:56:56;;;;;;;1999.90;999.90;;;17.50;99.90;;;;;;5092767;28;20076;-75
2023/08/18 05:59:22;;;;;;;1999.90;999.90;;;17.60;99.90;;;;;;5098116;28;20068;-76
2023/08/18 06:01:50;;;;;;;1999.90;999.90;;;17.70;99.90;;;;;;5108711;27;20489;-76
2023/08/18 06:04:15;;;;;;;1999.90;999.90;;;17.70;99.90;;;;;;5116476;27;20051;-75
2023/08/18 06:06:41;;;;;;;1999.90;999.90;;;17.70;99.90;;;;;;5118497;27;20512;-76
2023/08/18 06:09:06;;;;;;;1999.90;999.90;;;17.80;99.90;;;;;;5117688;27;20512;-76
2023/08/18 06:11:32;;;;;;;1999.90;999.90;;;17.90;99.90;;;;;;5118357;27;20039;-75
2023/08/18 06:13:59;;;;;;;1999.90;999.90;;;18.00;99.90;;;;;;5118115;27;20423;-76
2023/08/18 06:16:25;;;;;;;1999.90;999.90;;;18.00;99.90;;;;;;5116647;28;20068;-76
2023/08/18 06:18:50;;;;;;;1999.90;999.90;;;18.10;99.90;;;;;;5117406;27;20028;-76
2023/08/18 06:21:16;;;;;;;1999.90;999.90;;;18.10;99.90;;;;;;5118402;27;20043;-77
2023/08/18 06:23:41;;;;;;;1999.90;999.90;;;18.20;99.90;;;;;;5118170;27;20111;-76
2023/08/18 06:26:07;;;;;;;1999.90;999.90;;;18.30;99.90;;;;;;5117997;27;20032;-75
2023/08/18 06:28:32;;;;;;;1999.90;999.90;;;18.30;99.90;;;;;;5116512;28;20032;-76
2023/08/18 06:31:05;;;;;;;1999.90;999.90;;;18.50;99.90;;;;;;5117943;27;20115;-76
2023/08/18 06:33:31;;;;;;;1999.90;999.90;;;18.50;99.90;;;;;;5117624;27;20035;-76
2023/08/18 06:35:57;;;;;;;1999.90;999.90;;;18.50;99.90;;;;;;5117611;27;20036;-75
2023/08/18 06:38:23;;;;;;;1999.90;999.90;;;18.60;99.90;;;;;;5116284;28;20047;-76
2023/08/18 06:40:48;;;;;;;1999.90;999.90;;;18.60;99.90;;;;;;5117857;27;20028;-75
2023/08/18 06:43:14;;;;;;;1999.90;999.90;;;18.70;99.90;;;;;;5118052;27;20040;-76
2023/08/18 06:45:39;;;;;;;1999.90;999.90;;;18.90;99.90;;;;;;5117555;27;20032;-75
2023/08/18 06:48:05;;;;;;;1999.90;999.90;;;19.00;99.90;;;;;;5117786;27;20040;-75
2023/08/18 06:50:30;;;;;;;1999.90;999.90;;;19.10;99.90;;;;;;5117587;27;20072;-76
2023/08/18 06:52:56;;;;;;;1999.90;999.90;;;19.10;99.90;;;;;;5117767;27;20131;-76
2023/08/18 06:55:22;;;;;;;1999.90;999.90;;;19.30;99.90;;;;;;5117438;27;20122;-76
2023/08/18 06:57:47;;;;;;;1999.90;999.90;;;19.50;99.90;;;;;;5117375;27;20115;-76
2023/08/18 07:00:13;;;;;;;1999.90;999.90;;;19.60;99.90;;;;;;5117140;27;20032;-76
2023/08/18 07:02:39;;;;;;;1999.90;999.90;;;19.80;99.90;;;;;;5116720;28;20035;-76
2023/08/18 07:05:07;;;;;;;1999.90;999.90;;;19.90;99.90;;;;;;5117121;27;20081;-75
2023/08/18 07:07:36;;;;;;;1999.90;999.90;;;20.10;99.90;;;;;;5117493;27;20811;-79
2023/08/18 07:10:01;;;;;;;1999.90;999.90;;;20.20;99.90;;;;;;5115559;28;20032;-77
2023/08/18 07:12:27;;;;;;;1999.90;999.90;;;20.50;99.90;;;;;;5115818;28;20438;-75
2023/08/18 07:14:52;;;;;;;1999.90;999.90;;;20.70;99.90;;;;;;5117010;27;20036;-75
2023/08/18 07:17:18;;;;;;;1999.90;999.90;;;20.80;99.90;;;;;;5115271;28;20093;-76
2023/08/18 07:19:43;;;;;;;1999.90;999.90;;;21.00;99.90;;;;;;5116671;27;20493;-76
2023/08/18 07:22:09;;;;;;;1999.90;999.90;;;21.10;99.90;;;;;;5117184;27;20036;-76
2023/08/18 07:24:35;;;;;;;1999.90;999.90;;;21.30;99.90;;;;;;5116812;27;20197;-79
2023/08/18 07:27:00;;;;;;;1999.90;999.90;;;21.30;99.90;;;;;;5117177;27;20051;-77
2023/08/18 07:29:26;;;;;;;1999.90;999.90;;;21.50;99.90;;;;;;5118117;27;20107;-80
2023/08/18 07:31:51;;;;;;;1999.90;999.90;;;21.70;99.90;;;;;;5116402;28;20082;-76
2023/08/18 07:34:17;;;;;;;1999.90;999.90;;;21.80;99.90;;;;;;5115316;28;20039;-78
2023/08/18 07:36:43;;;;;;;1999.90;999.90;;;22.00;99.90;;;;;;5115472;28;20412;-76
2023/08/18 07:39:11;;;;;;;1999.90;999.90;;;22.20;99.90;;;;;;5116830;27;20028;-76
2023/08/18 07:41:40;;;;;;;1999.90;999.90;;;22.40;99.90;;;;;;5117197;27;20032;-75
2023/08/18 07:44:07;;;;;;;1999.90;999.90;;;22.70;99.90;;;;;;5115201;28;20044;-76
2023/08/18 07:46:34;;;;;;;1999.90;999.90;;;22.80;99.90;;;;;;5114962;28;20078;-76
2023/08/18 07:48:59;;;;;;;1999.90;999.90;;;23.00;99.90;;;;;;5116497;27;20527;-75
2023/08/18 07:51:25;;;;;;;1999.90;999.90;;;23.20;99.90;;;;;;5115305;28;20043;-76
2023/08/18 07:53:51;;;;;;;1999.90;999.90;;;23.30;99.90;;;;;;5116383;27;20039;-79
2023/08/18 07:56:16;;;;;;;1999.90;999.90;;;23.50;99.90;;;;;;5116365;27;20024;-78
2023/08/18 07:58:42;;;;;;;1999.90;999.90;;;23.60;99.90;;;;;;5114535;28;20453;-85
2023/08/18 08:01:08;;;;;;;1999.90;999.90;;;23.80;99.90;;;;;;5115327;28;20039;-75
2023/08/18 08:03:35;;;;;;;1999.90;999.90;;;24.00;99.90;;;;;;5115119;28;20082;-77
2023/08/18 08:06:04;;;;;;;1999.90;999.90;;;24.10;99.90;;;;;;5115066;28;20032;-76
2023/08/18 08:08:30;;;;;;;1999.90;999.90;;;24.30;99.90;;;;;;5106148;28;20043;-76
2023/08/18 08:10:56;;;;;;;1999.90;999.90;;;24.30;99.90;;;;;;5107968;28;20024;-76
2023/08/18 08:13:22;;;;;;;1999.90;999.90;;;24.50;99.90;;;;;;5115126;28;20115;-78
2023/08/18 08:15:47;;;;;;;1999.90;999.90;;;24.70;99.90;;;;;;5116076;28;20081;-77
2023/08/18 08:18:15;;;;;;;1999.90;999.90;;;24.90;99.90;;;;;;5116074;28;20531;-77
2023/08/18 08:20:41;;;;;;;1999.90;999.90;;;25.10;99.90;;;;;;5113110;27;20036;-77
2023/08/18 08:23:07;;;;;;;1999.90;999.90;;;25.10;99.90;;;;;;5116168;27;20040;-77
2023/08/18 08:25:34;;;;;;;1999.90;999.90;;;25.20;99.90;;;;;;5114403;28;20482;-76
2023/08/18 08:27:59;;;;;;;1999.90;999.90;;;25.20;99.90;;;;;;5115830;27;20841;-76
2023/08/18 08:30:25;;;;;;;1999.90;999.90;;;25.30;99.90;;;;;;5116128;27;20028;-77
2023/08/18 08:32:51;;;;;;;1999.90;999.90;;;25.40;99.90;;;;;;5116412;28;20043;-75
2023/08/18 08:35:16;;;;;;;1999.90;999.90;;;25.30;99.90;;;;;;5114364;28;20032;-75
2023/08/18 08:37:42;;;;;;;1999.90;999.90;;;25.30;99.90;;;;;;5115623;28;20040;-78
2023/08/18 08:40:17;;;;;;;1999.90;999.90;;;25.50;99.90;;;;;;5116088;28;20071;-78
2023/08/18 08:42:42;;;;;;;1999.90;999.90;;;25.60;99.90;;;;;;5115778;27;20557;-78
2023/08/18 08:45:08;;;;;;;1999.90;999.90;;;25.70;99.90;;;;;;5113895;28;20039;-77
2023/08/18 08:47:34;;;;;;;1999.90;999.90;;;25.80;99.90;;;;;;5115896;28;20036;-78
2023/08/18 08:50:02;;;;;;;1999.90;999.90;;;25.90;99.90;;;;;;5115481;28;20028;-77
2023/08/18 08:52:35;;;;;;;1999.90;999.90;;;26.10;99.90;;;;;;5114343;28;20036;-77
2023/08/18 08:55:02;;;;;;;1999.90;999.90;;;26.30;99.90;;;;;;5114486;28;20032;-75
2023/08/18 08:57:28;;;;;;;1999.90;999.90;;;26.30;99.90;;;;;;5114185;28;20036;-76
2023/08/18 08:59:54;;;;;;;1999.90;999.90;;;26.40;99.90;;;;;;5115177;28;20024;-76
2023/08/18 09:02:20;;;;;;;1999.90;999.90;;;26.60;99.90;;;;;;5115188;28;20536;-76
2023/08/18 09:04:46;;;;;;;1999.90;999.90;;;26.70;99.90;;;;;;5115147;27;20043;-76
2023/08/18 09:07:15;;;;;;;1999.90;999.90;;;26.80;99.90;;;;;;5098836;28;20444;-76
2023/08/18 09:09:41;;;;;;;1999.90;999.90;;;26.70;99.90;;;;;;5094554;28;20021;-75
2023/08/18 09:12:08;;;;;;;1999.90;999.90;;;27.00;99.90;;;;;;5095122;28;20067;-77
2023/08/18 09:14:39;;;;;;;1999.90;999.90;;;27.20;99.90;;;;;;5093172;28;20075;-76
2023/08/18 09:17:05;;;;;;;1999.90;999.90;;;27.20;99.90;;;;;;5093392;28;20571;-76
2023/08/18 09:19:31;;;;;;;1999.90;999.90;;;27.40;99.90;;;;;;5108829;22;20202;-74
2023/08/18 09:21:59;;;;;;;1999.90;999.90;;;27.40;99.90;;;;;;5093141;28;20194;-75
2023/08/18 09:24:25;;;;;;;1999.90;999.90;;;27.60;99.90;;;;;;5094228;28;20123;-74
2023/08/18 09:26:51;;;;;;;1999.90;999.90;;;27.80;99.90;;;;;;5093239;28;20032;-74
2023/08/18 09:29:16;;;;;;;1999.90;999.90;;;27.80;99.90;;;;;;5094338;28;20108;-74
2023/08/18 09:31:45;;;;;;;1999.90;999.90;;;27.70;99.90;;;;;;5095478;28;20834;-74
2023/08/18 09:34:24;;;;;;;1999.90;999.90;;;27.80;99.90;;;;;;5097718;28;20024;-74
2023/08/18 09:36:54;;;;;;;1999.90;999.90;;;27.90;99.90;;;;;;5097871;28;20033;-74
2023/08/18 09:39:20;;;;;;;1999.90;999.90;;;28.00;99.90;;;;;;5097887;28;20035;-75
2023/08/18 09:41:53;;;;;;;1999.90;999.90;;;28.10;99.90;;;;;;5098151;28;20039;-75
2023/08/18 09:44:20;;;;;;;1999.90;999.90;;;28.30;99.90;;;;;;5097791;28;20032;-74
2023/08/18 09:46:53;;;;;;;1999.90;999.90;;;28.40;99.90;;;;;;5087572;28;20037;-73
2023/08/18 09:49:20;;;;;;;1999.90;999.90;;;28.50;99.90;;;;;;5097411;28;20036;-75
2023/08/18 09:51:52;;;;;;;1999.90;999.90;;;28.40;99.90;;;;;;5096736;28;20041;-74
2023/08/18 09:54:19;;;;;;;1999.90;999.90;;;28.60;99.90;;;;;;5088469;28;20066;-74
2023/08/18 09:56:48;;;;;;;1999.90;999.90;;;28.90;99.90;;;;;;5087636;28;20060;-75
2023/08/18 09:59:18;;;;;;;1999.90;999.90;;;29.10;99.90;;;;;;5087979;28;20021;-76
2023/08/18 10:01:46;;;;;;;1999.90;999.90;;;29.10;99.90;;;;;;5077440;28;20079;-75
2023/08/18 10:04:12;;;;;;;1999.90;999.90;;;29.20;99.70;;;;;;5077359;28;20059;-77
2023/08/18 10:06:40;;;;;;;1999.90;999.90;;;29.30;99.70;;;;;;5076079;28;20044;-77
2023/08/18 10:09:06;;;;;;;1999.90;999.90;;;29.50;98.50;;;;;;5076907;28;20498;-76
2023/08/18 10:11:34;;;;;;;1999.90;999.90;;;29.60;98.70;;;;;;5077011;28;20041;-75
2023/08/18 10:14:00;;;;;;;1999.90;999.90;;;29.80;99.80;;;;;;5076602;28;20041;-75
2023/08/18 10:16:26;;;;;;;1999.90;999.90;;;29.90;98.90;;;;;;5077242;28;20547;-76
2023/08/18 10:18:56;;;;;;;1999.90;999.90;;;29.90;97.80;;;;;;5078188;28;20056;-77
2023/08/18 10:21:22;;;;;;;1999.90;999.90;;;30.00;98.10;;;;;;5077592;28;20033;-78
2023/08/18 10:23:48;;;;;;;1999.90;999.90;;;29.80;98.50;;;;;;5077951;28;20517;-76
2023/08/18 10:26:14;;;;;;;1999.90;999.90;;;29.90;97.70;;;;;;5077494;28;20048;-78
2023/08/18 10:28:40;;;;;;;1999.90;999.90;;;30.10;97.00;;;;;;5077977;28;20029;-79
2023/08/18 10:31:11;;;;;;;1999.90;999.90;;;30.40;96.60;;;;;;5075513;28;20457;-76
2023/08/18 10:33:46;;;;;;;1999.90;999.90;;;30.60;95.30;;;;;;5077759;28;20514;-76
2023/08/18 10:36:24;;;;;;;1999.90;999.90;;;30.60;97.20;;;;;;5076981;28;20025;-76
2023/08/18 10:38:52;;;;;;;1999.90;999.90;;;30.60;97.00;;;;;;5076955;28;20041;-76
2023/08/18 10:41:24;;;;;;;1999.90;999.90;;;30.70;96.10;;;;;;5076635;28;20154;-76
2023/08/18 10:43:56;;;;;;;1999.90;999.90;;;30.90;95.10;;;;;;5076694;28;20449;-77
2023/08/18 10:46:34;;;;;;;1999.90;999.90;;;30.90;94.70;;;;;;5085125;28;20421;-75
2023/08/18 10:49:00;;;;;;;1999.90;999.90;;;30.70;95.00;;;;;;5095872;28;20115;-75
2023/08/18 10:51:26;;;;;;;1999.90;999.90;;;30.80;95.20;;;;;;5096005;28;20033;-76
2023/08/18 10:53:52;;;;;;;1999.90;999.90;;;30.90;95.10;;;;;;5089317;28;20025;-75
2023/08/18 10:56:17;;;;;;;1999.90;999.90;;;30.80;94.00;;;;;;5075553;28;20033;-75
2023/08/18 10:58:43;;;;;;;1999.90;999.90;;;30.70;93.30;;;;;;5075880;28;20048;-75
2023/08/18 11:01:09;;;;;;;1999.90;999.90;;;30.70;93.20;;;;;;5074125;28;20068;-75
2023/08/18 11:03:35;;;;;;;1999.90;999.90;;;31.00;93.00;;;;;;5076295;28;20052;-76
2023/08/18 11:06:02;;;;;;;1999.90;999.90;;;30.90;93.20;;;;;;5075669;28;20029;-76
2023/08/18 11:08:28;;;;;;;1999.90;999.90;;;31.10;92.90;;;;;;5074210;28;20175;-77
2023/08/18 11:10:54;;;;;;;1999.90;999.90;;;31.20;92.10;;;;;;5075355;28;20068;-76
2023/08/18 11:13:25;;;;;;;1999.90;999.90;;;31.50;92.10;;;;;;5075997;28;20139;-75
2023/08/18 11:15:56;;;;;;;1999.90;999.90;;;31.80;91.30;;;;;;5075484;28;20025;-75
2023/08/18 11:18:23;;;;;;;1999.90;999.90;;;31.90;92.70;;;;;;5075976;28;20036;-75
2023/08/18 11:20:50;;;;;;;1999.90;999.90;;;31.90;91.90;;;;;;5074129;28;20048;-76
2023/08/18 11:23:15;;;;;;;1999.90;999.90;;;32.10;91.50;;;;;;5079807;28;20040;-78
2023/08/18 11:25:41;;;;;;;1999.90;999.90;;;32.30;93.40;;;;;;5096619;28;20166;-76
2023/08/18 11:28:08;;;;;;;1999.90;999.90;;;32.10;90.90;;;;;;5096668;28;20040;-75
2023/08/18 11:30:34;;;;;;;1999.90;999.90;;;32.20;88.90;;;;;;5077896;28;20069;-75
2023/08/18 11:32:59;;;;;;;1999.90;999.90;;;32.10;90.60;;;;;;5076651;28;20757;-78
2023/08/18 11:35:26;;;;;;;1999.90;999.90;;;32.10;90.20;;;;;;5075952;28;20575;-73
2023/08/18 11:37:52;;;;;;;1999.90;999.90;;;32.20;88.80;;;;;;5075866;28;20036;-75
2023/08/18 11:40:21;;;;;;;1999.90;999.90;;;32.20;87.50;;;;;;5074252;28;20494;-77
